Time;durP1;ratioP1;P1;durP2;ratioP2;P2;SDS_P1;SDS_P2;PMS_P1;PMS_P2;Temp;Humidity;BMP_temperature;BMP_pressure;BME280_temperature;BME280_humidity;BME280_pressure;Samples;Min_cycle;Max_cycle;Signal;HPM_P1;HPM_P2
2022/10/08 00:01:31;;;;;;;9.70;8.70;;;15.40;99.90;;;;;;5012881;28;20494;-87
2022/10/08 00:04:00;;;;;;;11.27;10.17;;;15.20;99.90;;;;;;5013118;28;20508;-84
2022/10/08 00:06:31;;;;;;;9.67;8.77;;;15.20;99.90;;;;;;5015378;28;20439;-83
2022/10/08 00:09:06;;;;;;;9.93;9.13;;;15.20;99.90;;;;;;4996775;28;20740;-84
2022/10/08 00:11:43;;;;;;;10.47;9.17;;;15.20;99.90;;;;;;4998160;28;20445;-83
2022/10/08 00:14:11;;;;;;;11.83;10.63;;;15.20;99.90;;;;;;5004662;28;20489;-82
2022/10/08 00:16:40;;;;;;;17.03;12.20;;;15.10;99.90;;;;;;5004175;28;20500;-84
2022/10/08 00:19:13;;;;;;;14.83;9.90;;;15.10;99.90;;;;;;5005265;28;20484;-88
2022/10/08 00:21:43;;;;;;;10.67;9.77;;;15.00;99.90;;;;;;4992664;28;20454;-88
2022/10/08 00:24:13;;;;;;;11.97;10.30;;;15.00;99.90;;;;;;5001283;28;20510;-88
2022/10/08 00:26:43;;;;;;;11.60;10.50;;;14.90;99.90;;;;;;5005072;28;20502;-86
2022/10/08 00:29:14;;;;;;;10.63;9.60;;;14.80;99.90;;;;;;5005030;28;20214;-85
2022/10/08 00:31:46;;;;;;;12.57;11.25;;;14.90;99.90;;;;;;4993683;28;20262;-85
2022/10/08 00:34:17;;;;;;;12.25;10.95;;;14.70;99.90;;;;;;5002085;28;20242;-86
2022/10/08 00:36:46;;;;;;;11.77;10.07;;;14.70;99.90;;;;;;4992299;28;20231;-86
2022/10/08 00:39:17;;;;;;;11.40;10.30;;;14.70;99.90;;;;;;4997398;28;20218;-89
2022/10/08 00:41:50;;;;;;;12.55;11.25;;;14.70;99.90;;;;;;5000534;28;20261;-88
2022/10/08 00:44:45;;;;;;;13.00;11.73;;;14.60;99.90;;;;;;5005126;28;20254;-87
2022/10/08 00:47:30;;;;;;;11.80;10.60;;;14.70;99.90;;;;;;5001063;28;20218;-87
2022/10/08 00:50:14;;;;;;;12.25;11.05;;;14.60;99.90;;;;;;4997118;28;20220;-87
2022/10/08 00:53:00;;;;;;;14.82;12.02;;;14.60;99.90;;;;;;5003287;28;20571;-85
2022/10/08 00:55:28;;;;;;;12.15;11.05;;;14.90;99.90;;;;;;4986304;28;20227;-86
2022/10/08 00:58:05;;;;;;;11.40;9.73;;;15.10;99.90;;;;;;5001047;28;20259;-87
2022/10/08 01:00:33;;;;;;;11.18;10.00;;;15.20;99.90;;;;;;4994246;28;20462;-87
2022/10/08 01:03:02;;;;;;;13.38;11.70;;;15.30;99.90;;;;;;4996928;28;20226;-87
2022/10/08 01:05:45;;;;;;;13.10;11.82;;;15.40;99.90;;;;;;4999608;28;20215;-87
2022/10/08 01:08:34;;;;;;;11.43;10.43;;;15.60;99.90;;;;;;5003994;28;20239;-86
2022/10/08 01:11:22;;;;;;;12.60;11.40;;;15.70;99.90;;;;;;5001437;28;20245;-86
2022/10/08 01:14:03;;;;;;;14.77;11.80;;;15.80;99.90;;;;;;5000710;28;20477;-86
2022/10/08 01:16:59;;;;;;;10.03;9.00;;;15.80;99.90;;;;;;4978858;28;20460;-85
2022/10/08 01:20:20;;;;;;;11.23;10.23;;;15.70;99.90;;;;;;5000570;28;20450;-85
2022/10/08 01:23:12;;;;;;;9.67;8.83;;;15.60;99.90;;;;;;4993278;28;20451;-86
2022/10/08 01:26:09;;;;;;;12.33;11.17;;;15.70;99.90;;;;;;4996354;28;20439;-86
2022/10/08 01:29:00;;;;;;;10.53;9.43;;;15.80;99.90;;;;;;4992485;28;20506;-87
2022/10/08 01:31:39;;;;;;;9.43;8.57;;;15.80;99.90;;;;;;4994970;28;20450;-87
2022/10/08 01:34:19;;;;;;;10.07;9.07;;;15.90;99.90;;;;;;5003040;28;20551;-87
2022/10/08 01:36:51;;;;;;;10.07;9.00;;;15.90;99.90;;;;;;4992200;28;20450;-87
2022/10/08 01:39:23;;;;;;;10.93;9.50;;;15.80;99.90;;;;;;4995895;28;20678;-87
2022/10/08 01:41:57;;;;;;;9.03;8.17;;;15.90;99.90;;;;;;4997995;28;20775;-86
2022/10/08 01:44:32;;;;;;;10.80;9.80;;;16.00;99.90;;;;;;5002683;28;20462;-86
2022/10/08 01:47:04;;;;;;;13.03;8.60;;;16.00;99.90;;;;;;5001313;28;20468;-87
2022/10/08 01:49:58;;;;;;;11.10;10.00;;;16.00;99.90;;;;;;5001370;28;20481;-86
2022/10/08 01:52:47;;;;;;;10.03;9.07;;;15.90;99.90;;;;;;5002058;28;20452;-85
2022/10/08 01:55:41;;;;;;;12.17;8.83;;;15.70;99.90;;;;;;5002920;28;20469;-86
2022/10/08 01:58:22;;;;;;;12.70;9.33;;;15.60;99.90;;;;;;4998219;28;20445;-87
2022/10/08 02:00:57;;;;;;;8.67;7.97;;;15.80;99.90;;;;;;4995663;28;20448;-86
2022/10/08 02:03:25;;;;;;;10.37;9.40;;;15.90;99.90;;;;;;5004796;28;20465;-86
2022/10/08 02:05:58;;;;;;;11.30;10.17;;;15.70;99.90;;;;;;5003355;28;20780;-86
2022/10/08 02:08:26;;;;;;;10.80;9.80;;;15.70;99.90;;;;;;5001381;28;20510;-87
2022/10/08 02:10:53;;;;;;;11.57;9.90;;;15.70;99.90;;;;;;5002911;28;20458;-88
2022/10/08 02:13:21;;;;;;;10.53;9.60;;;15.70;99.90;;;;;;5001585;28;20508;-86
2022/10/08 02:16:00;;;;;;;11.30;9.60;;;15.80;99.90;;;;;;5001892;28;20493;-87
2022/10/08 02:18:39;;;;;;;10.60;9.70;;;15.80;99.90;;;;;;4999827;28;20463;-86
2022/10/08 02:21:28;;;;;;;11.55;10.45;;;15.60;99.90;;;;;;5000508;28;20450;-86
2022/10/08 02:24:17;;;;;;;10.65;9.65;;;15.60;99.90;;;;;;5010817;28;20205;-86
2022/10/08 02:26:52;;;;;;;12.87;9.73;;;15.60;99.90;;;;;;4993573;28;20262;-86
2022/10/08 02:29:28;;;;;;;9.70;8.90;;;15.50;99.90;;;;;;4998653;28;20500;-86
2022/10/08 02:32:12;;;;;;;10.40;9.50;;;15.50;99.90;;;;;;4994095;28;20790;-86
2022/10/08 02:34:48;;;;;;;10.00;9.00;;;15.50;99.90;;;;;;5003288;28;20470;-86
2022/10/08 02:37:38;;;;;;;11.53;10.43;;;15.50;99.90;;;;;;5006834;28;20445;-86
2022/10/08 02:40:12;;;;;;;12.93;10.93;;;15.30;99.90;;;;;;5012602;28;20507;-87
2022/10/08 02:42:45;;;;;;;17.77;10.20;;;15.30;99.90;;;;;;5012038;28;20470;-87
2022/10/08 02:45:28;;;;;;;12.80;11.30;;;15.40;99.90;;;;;;5009220;28;20580;-86
2022/10/08 02:48:06;;;;;;;11.20;10.00;;;15.30;99.90;;;;;;4997654;28;20446;-85
2022/10/08 02:50:38;;;;;;;10.90;9.80;;;15.30;99.90;;;;;;5005921;28;20454;-89
2022/10/08 02:53:13;;;;;;;9.43;8.63;;;15.20;99.90;;;;;;5011342;28;20441;-88
2022/10/08 02:55:54;;;;;;;10.77;9.67;;;15.30;99.90;;;;;;5008567;28;20492;-86
2022/10/08 02:58:22;;;;;;;10.35;9.20;;;15.20;99.90;;;;;;5007596;28;20467;-88
2022/10/08 03:01:27;;;;;;;9.90;8.90;;;15.10;99.90;;;;;;5002367;28;20200;-86
2022/10/08 03:04:13;;;;;;;10.27;9.23;;;15.20;99.90;;;;;;5004960;28;20257;-87
2022/10/08 03:06:41;;;;;;;9.30;8.23;;;15.20;99.90;;;;;;5004493;28;20454;-86
2022/10/08 03:09:11;;;;;;;11.43;10.10;;;15.30;99.90;;;;;;5006761;28;20470;-87
2022/10/08 03:11:40;;;;;;;11.83;10.60;;;15.40;99.90;;;;;;5006708;28;20759;-87
2022/10/08 03:14:11;;;;;;;10.70;8.90;;;15.50;99.90;;;;;;5006097;28;20480;-87
2022/10/08 03:16:52;;;;;;;10.40;9.40;;;15.70;99.90;;;;;;5005748;28;20520;-87
2022/10/08 03:19:30;;;;;;;11.47;10.17;;;15.60;99.90;;;;;;5004753;28;20456;-85
2022/10/08 03:22:00;;;;;;;10.80;9.87;;;15.40;99.90;;;;;;5006562;28;20462;-89
2022/10/08 03:24:28;;;;;;;17.93;10.87;;;15.40;99.90;;;;;;5002689;28;20488;-87
2022/10/08 03:26:56;;;;;;;10.93;9.93;;;15.40;99.90;;;;;;5003096;28;20452;-86
2022/10/08 03:29:23;;;;;;;11.97;10.37;;;15.30;99.90;;;;;;5004197;28;20511;-88
2022/10/08 03:31:52;;;;;;;11.87;10.70;;;15.30;99.90;;;;;;5005089;28;20544;-87
2022/10/08 03:34:20;;;;;;;11.40;10.20;;;15.40;99.90;;;;;;5006082;28;20479;-87
2022/10/08 03:36:48;;;;;;;12.87;9.53;;;15.50;99.90;;;;;;5009491;28;20466;-85
2022/10/08 03:39:18;;;;;;;15.60;10.30;;;15.50;99.90;;;;;;5018521;28;20503;-86
2022/10/08 03:41:46;;;;;;;10.43;9.30;;;15.70;99.90;;;;;;5007281;28;20453;-84
2022/10/08 03:44:14;;;;;;;11.53;10.43;;;15.70;99.90;;;;;;5011275;28;20440;-86
2022/10/08 03:46:42;;;;;;;10.03;9.07;;;15.50;99.90;;;;;;5007513;28;20461;-89
2022/10/08 03:49:11;;;;;;;11.87;10.63;;;15.50;99.90;;;;;;5006277;28;20479;-88
2022/10/08 03:51:41;;;;;;;11.48;10.43;;;15.50;99.90;;;;;;4989644;28;20529;-87
2022/10/08 03:54:14;;;;;;;12.13;10.93;;;15.40;99.90;;;;;;5007376;28;20200;-87
2022/10/08 03:56:45;;;;;;;14.47;11.50;;;15.50;99.90;;;;;;5008642;28;20485;-86
2022/10/08 03:59:13;;;;;;;14.37;12.97;;;15.20;99.90;;;;;;5017654;28;20465;-85
2022/10/08 04:01:40;;;;;;;11.73;10.70;;;15.20;99.90;;;;;;5019275;28;20475;-83
2022/10/08 04:04:07;;;;;;;13.05;11.85;;;15.10;99.90;;;;;;5014985;28;20462;-85
2022/10/08 04:06:34;;;;;;;13.20;12.10;;;14.90;99.90;;;;;;5014950;28;20230;-83
2022/10/08 04:09:03;;;;;;;13.30;11.30;;;14.90;99.90;;;;;;5005749;28;20283;-85
2022/10/08 04:11:30;;;;;;;12.88;11.60;;;14.90;99.90;;;;;;5001512;28;20792;-85
2022/10/08 04:13:59;;;;;;;12.75;11.63;;;14.80;99.90;;;;;;5003547;28;20221;-85
2022/10/08 04:16:27;;;;;;;13.68;12.43;;;14.80;99.90;;;;;;5004338;28;20271;-85
2022/10/08 04:18:54;;;;;;;12.00;10.90;;;14.70;99.90;;;;;;5004340;28;20210;-85
2022/10/08 04:21:21;;;;;;;15.80;11.80;;;14.80;99.90;;;;;;5005559;28;20204;-85
2022/10/08 04:23:56;;;;;;;14.25;12.95;;;14.80;99.90;;;;;;5010905;28;20257;-85
2022/10/08 04:26:23;;;;;;;12.55;11.35;;;14.70;99.90;;;;;;5015799;28;20222;-85
2022/10/08 04:28:50;;;;;;;14.07;12.45;;;14.70;99.90;;;;;;5000967;28;20211;-85
2022/10/08 04:31:22;;;;;;;13.02;11.75;;;14.60;99.90;;;;;;5005778;28;20245;-84
2022/10/08 04:33:50;;;;;;;16.08;14.63;;;14.50;99.90;;;;;;4997689;28;20253;-85
2022/10/08 04:36:21;;;;;;;14.27;11.87;;;14.60;99.90;;;;;;5004695;28;20280;-85
2022/10/08 04:38:48;;;;;;;13.43;12.10;;;14.60;99.90;;;;;;4988189;28;20515;-84
2022/10/08 04:41:25;;;;;;;14.20;12.35;;;14.40;99.90;;;;;;4991489;28;20406;-85
2022/10/08 04:43:53;;;;;;;13.60;12.30;;;14.30;99.90;;;;;;5004535;28;20205;-85
2022/10/08 04:46:21;;;;;;;17.10;13.40;;;14.40;99.90;;;;;;5002870;28;20209;-85
2022/10/08 04:48:53;;;;;;;14.30;12.87;;;14.50;99.90;;;;;;5003561;28;20215;-86
2022/10/08 04:51:25;;;;;;;16.83;11.00;;;14.60;99.90;;;;;;5004171;28;20609;-87
2022/10/08 04:53:54;;;;;;;15.82;14.15;;;14.70;99.90;;;;;;5004122;28;20207;-86
2022/10/08 04:56:26;;;;;;;14.95;13.57;;;14.80;99.90;;;;;;5004202;28;20238;-86
2022/10/08 04:58:55;;;;;;;15.32;13.77;;;14.90;99.90;;;;;;5011577;28;20219;-86
2022/10/08 05:01:24;;;;;;;13.25;11.90;;;14.90;99.90;;;;;;5003474;28;20357;-86
2022/10/08 05:03:54;;;;;;;15.50;13.73;;;14.80;99.90;;;;;;5003147;28;20282;-86
2022/10/08 05:06:24;;;;;;;18.25;14.15;;;14.80;99.90;;;;;;5002832;28;20392;-86
2022/10/08 05:09:01;;;;;;;14.75;13.07;;;14.80;99.90;;;;;;4999462;28;20289;-87
2022/10/08 05:11:30;;;;;;;14.70;13.40;;;14.70;99.90;;;;;;4993895;28;20270;-84
2022/10/08 05:13:59;;;;;;;14.27;12.88;;;14.50;99.90;;;;;;5003685;28;20212;-84
2022/10/08 05:16:27;;;;;;;16.10;14.60;;;14.50;99.90;;;;;;4986126;28;20237;-84
2022/10/08 05:18:56;;;;;;;15.43;13.98;;;14.40;99.90;;;;;;5004059;28;20222;-84
2022/10/08 05:21:26;;;;;;;15.60;13.73;;;14.40;99.90;;;;;;4986067;28;20220;-86
2022/10/08 05:23:59;;;;;;;15.90;12.90;;;14.60;99.90;;;;;;4985585;28;20277;-85
2022/10/08 05:26:33;;;;;;;15.23;13.82;;;14.60;99.90;;;;;;4997908;28;20293;-85
2022/10/08 05:29:21;;;;;;;16.88;13.88;;;14.60;99.90;;;;;;5004004;28;21611;-88
2022/10/08 05:31:49;;;;;;;16.20;14.50;;;14.80;99.90;;;;;;5006066;28;20222;-84
2022/10/08 05:34:16;;;;;;;17.15;15.48;;;14.70;99.90;;;;;;5002635;28;20577;-87
2022/10/08 05:36:52;;;;;;;16.75;15.10;;;14.70;99.90;;;;;;5003962;28;20210;-86
2022/10/08 05:39:27;;;;;;;17.80;16.00;;;14.80;99.90;;;;;;5004782;28;20317;-87
2022/10/08 05:41:58;;;;;;;18.13;14.60;;;14.80;99.90;;;;;;4985482;28;20449;-87
2022/10/08 05:44:26;;;;;;;15.35;13.85;;;14.90;99.90;;;;;;5000184;28;20442;-87
2022/10/08 05:47:02;;;;;;;16.45;15.00;;;14.90;99.90;;;;;;5005983;28;20210;-88
2022/10/08 05:49:30;;;;;;;16.27;14.63;;;14.90;99.90;;;;;;5009125;28;20270;-87
2022/10/08 05:52:01;;;;;;;16.15;13.40;;;15.00;99.90;;;;;;5009249;28;20219;-89
2022/10/08 05:54:33;;;;;;;12.82;11.63;;;15.20;99.90;;;;;;5002626;28;20242;-86
2022/10/08 05:56:59;;;;;;;16.05;13.10;;;15.30;99.90;;;;;;4988846;28;20236;-88
2022/10/08 05:59:27;;;;;;;13.23;11.85;;;15.40;99.90;;;;;;4997445;28;20267;-84
2022/10/08 06:01:56;;;;;;;13.97;12.50;;;15.60;99.90;;;;;;4992533;28;20215;-85
2022/10/08 06:04:24;;;;;;;14.03;12.53;;;15.70;99.90;;;;;;5003310;28;20455;-85
2022/10/08 06:06:56;;;;;;;13.87;12.47;;;15.80;99.90;;;;;;5003458;28;21043;-86
2022/10/08 06:09:23;;;;;;;14.67;13.27;;;16.00;99.90;;;;;;5000943;28;20442;-85
2022/10/08 06:11:53;;;;;;;13.90;12.70;;;16.10;99.90;;;;;;4998410;28;20504;-85
2022/10/08 06:14:27;;;;;;;18.50;14.00;;;16.20;99.90;;;;;;5000167;28;20438;-84
2022/10/08 06:16:56;;;;;;;15.07;12.27;;;16.50;99.90;;;;;;5003332;28;20470;-85
2022/10/08 06:19:26;;;;;;;16.37;14.70;;;16.50;99.90;;;;;;5002860;28;20679;-85
2022/10/08 06:21:55;;;;;;;14.67;13.33;;;16.50;99.90;;;;;;5004140;28;20478;-84
2022/10/08 06:24:31;;;;;;;25.87;13.93;;;16.70;99.90;;;;;;5000040;28;20475;-84
2022/10/08 06:26:58;;;;;;;13.60;12.30;;;16.80;99.90;;;;;;4993389;28;20509;-82
2022/10/08 06:29:30;;;;;;;12.80;11.67;;;16.60;99.90;;;;;;5001805;28;20446;-82
2022/10/08 06:31:59;;;;;;;13.63;12.37;;;16.80;99.90;;;;;;4997240;28;20565;-82
2022/10/08 06:34:25;;;;;;;14.60;13.37;;;16.80;99.90;;;;;;4994080;28;20779;-83
2022/10/08 06:36:56;;;;;;;12.80;11.23;;;16.80;99.90;;;;;;4993137;28;20899;-84
2022/10/08 06:39:23;;;;;;;18.43;14.37;;;17.20;99.90;;;;;;4996480;28;20436;-83
2022/10/08 06:41:52;;;;;;;13.30;12.00;;;17.50;99.90;;;;;;5006050;28;20447;-83
2022/10/08 06:44:20;;;;;;;14.23;12.77;;;17.90;99.90;;;;;;5005844;28;20446;-84
2022/10/08 06:46:50;;;;;;;13.63;12.23;;;18.30;99.90;;;;;;5004915;28;20744;-86
2022/10/08 06:49:18;;;;;;;10.80;9.70;;;18.60;99.90;;;;;;5006319;28;20451;-82
2022/10/08 06:51:46;;;;;;;13.73;12.53;;;18.70;99.90;;;;;;5004841;28;20643;-84
2022/10/08 06:54:14;;;;;;;14.93;11.17;;;18.90;99.90;;;;;;5007500;28;20541;-83
2022/10/08 06:56:43;;;;;;;13.10;10.87;;;19.00;99.90;;;;;;4990821;28;20480;-84
2022/10/08 06:59:11;;;;;;;12.13;11.00;;;19.20;99.90;;;;;;5009090;28;20458;-84
2022/10/08 07:01:45;;;;;;;12.77;11.33;;;19.30;99.90;;;;;;5005987;28;20492;-84
2022/10/08 07:04:17;;;;;;;16.80;13.80;;;19.40;99.90;;;;;;4991507;28;20670;-85
2022/10/08 07:06:44;;;;;;;11.90;10.67;;;19.80;99.90;;;;;;5004172;28;20436;-84
2022/10/08 07:09:12;;;;;;;12.80;11.53;;;20.10;99.90;;;;;;5005146;28;20493;-85
2022/10/08 07:11:42;;;;;;;14.47;11.53;;;20.10;99.90;;;;;;5006169;28;20805;-84
2022/10/08 07:14:10;;;;;;;12.40;11.20;;;20.10;99.90;;;;;;5008796;28;20479;-85
2022/10/08 07:16:39;;;;;;;13.50;11.80;;;20.20;99.90;;;;;;5015203;28;20472;-84
2022/10/08 07:19:09;;;;;;;11.60;10.50;;;20.40;99.90;;;;;;4996433;28;20450;-84
2022/10/08 07:21:46;;;;;;;13.70;10.33;;;21.00;99.90;;;;;;4988432;28;20460;-83
2022/10/08 07:24:18;;;;;;;12.80;11.53;;;21.80;99.90;;;;;;4988862;28;20487;-84
2022/10/08 07:26:56;;;;;;;13.47;10.70;;;22.20;99.90;;;;;;4999685;28;20796;-86
2022/10/08 07:29:25;;;;;;;12.60;9.47;;;23.20;99.90;;;;;;5008574;28;20424;-90
2022/10/08 07:31:53;;;;;;;14.60;10.87;;;24.10;99.90;;;;;;5014120;28;20406;-87
2022/10/08 07:34:36;;;;;;;11.27;10.20;;;24.10;99.90;;;;;;5013702;28;20436;-90
2022/10/08 07:37:05;;;;;;;14.60;10.30;;;24.10;99.90;;;;;;5014917;28;20446;-90
2022/10/08 07:39:38;;;;;;;12.27;10.30;;;24.30;99.90;;;;;;4996098;28;20419;-87
2022/10/08 07:42:06;;;;;;;11.67;10.57;;;24.70;99.90;;;;;;5011853;28;20513;-90
2022/10/08 07:44:38;;;;;;;13.60;10.40;;;25.00;99.90;;;;;;5008013;28;20434;-85
2022/10/08 07:47:09;;;;;;;10.87;9.90;;;25.20;99.90;;;;;;5009075;28;20586;-86
2022/10/08 07:49:41;;;;;;;12.03;9.67;;;24.80;99.90;;;;;;5005507;28;20490;-88
2022/10/08 07:52:23;;;;;;;16.20;11.37;;;24.50;99.90;;;;;;5007414;28;20406;-85
2022/10/08 07:54:54;;;;;;;15.53;11.00;;;24.20;99.90;;;;;;5008510;28;20455;-86
2022/10/08 07:57:26;;;;;;;15.93;11.63;;;24.10;99.90;;;;;;5002828;28;20423;-84
2022/10/08 07:59:53;;;;;;;14.40;11.27;;;24.10;99.90;;;;;;5007753;28;20410;-86
2022/10/08 08:02:24;;;;;;;15.50;10.53;;;24.40;99.90;;;;;;5008102;28;20478;-86
2022/10/08 08:05:03;;;;;;;11.93;10.70;;;24.70;99.90;;;;;;5005193;28;20455;-86
2022/10/08 08:07:33;;;;;;;12.53;11.23;;;25.60;99.90;;;;;;5000987;28;20449;-86
2022/10/08 08:10:08;;;;;;;10.67;9.10;;;26.30;99.90;;;;;;4992895;28;20497;-86
2022/10/08 08:12:42;;;;;;;11.53;10.30;;;26.30;99.90;;;;;;5003372;28;20780;-84
2022/10/08 08:15:12;;;;;;;10.37;8.30;;;26.30;99.90;;;;;;4994336;28;20833;-87
2022/10/08 08:18:07;;;;;;;11.77;10.10;;;26.90;99.90;;;;;;4982627;28;20494;-84
2022/10/08 08:20:36;;;;;;;12.97;11.43;;;27.60;99.90;;;;;;5011525;28;20393;-89
2022/10/08 08:23:11;;;;;;;15.37;9.30;;;27.50;99.90;;;;;;5011276;28;20439;-89
2022/10/08 08:25:55;;;;;;;10.60;9.43;;;27.40;99.90;;;;;;5011450;28;20460;-87
2022/10/08 08:28:38;;;;;;;9.40;8.60;;;27.40;99.90;;;;;;5001533;28;20409;-88
2022/10/08 08:31:19;;;;;;;10.77;8.70;;;26.70;99.90;;;;;;5008375;28;20460;-88
2022/10/08 08:33:52;;;;;;;10.37;9.30;;;26.20;99.90;;;;;;4997362;28;20445;-85
2022/10/08 08:36:28;;;;;;;9.83;8.90;;;26.20;99.90;;;;;;5007534;28;20419;-88
2022/10/08 08:38:55;;;;;;;10.23;8.93;;;26.00;99.90;;;;;;4985071;28;20421;-88
2022/10/08 08:41:55;;;;;;;9.93;8.93;;;25.90;99.90;;;;;;5008615;28;20440;-88
2022/10/08 08:44:30;;;;;;;11.70;9.03;;;26.30;99.90;;;;;;5008244;28;20455;-86
2022/10/08 08:47:10;;;;;;;16.07;10.33;;;25.80;99.90;;;;;;5008796;28;20491;-87
2022/10/08 08:49:44;;;;;;;15.33;11.43;;;25.80;99.90;;;;;;5000442;28;20437;-88
2022/10/08 08:52:40;;;;;;;10.70;9.10;;;25.30;99.90;;;;;;5008325;28;20462;-88
2022/10/08 08:55:18;;;;;;;11.07;9.70;;;24.60;99.90;;;;;;5002812;28;20486;-87
2022/10/08 08:58:33;;;;;;;14.10;10.63;;;23.80;99.90;;;;;;5020280;28;20400;-88
2022/10/08 09:01:44;;;;;;;14.73;9.60;;;23.10;99.90;;;;;;5018056;28;20417;-88
2022/10/08 09:04:34;;;;;;;17.63;10.63;;;22.60;99.90;;;;;;5005812;28;20414;-89
2022/10/08 09:07:43;;;;;;;12.70;10.40;;;22.70;99.90;;;;;;5011926;28;20481;-90
2022/10/08 09:12:58;;;;;;;12.23;9.57;;;23.40;99.90;;;;;;5086754;23;20485;-88
2022/10/08 09:15:44;;;;;;;19.03;10.90;;;23.40;99.90;;;;;;5007939;28;20436;-87
2022/10/08 09:18:15;;;;;;;14.17;11.57;;;23.20;99.90;;;;;;5001786;28;20524;-89
2022/10/08 09:20:45;;;;;;;12.80;9.80;;;23.40;99.90;;;;;;5007320;28;20421;-89
2022/10/08 09:23:22;;;;;;;14.77;10.10;;;23.30;99.90;;;;;;5007181;28;20426;-85
2022/10/08 09:26:09;;;;;;;17.70;9.27;;;23.00;99.90;;;;;;5008517;28;20560;-87
2022/10/08 09:29:12;;;;;;;13.27;9.90;;;22.90;99.90;;;;;;5013129;28;20753;-89
2022/10/08 09:31:46;;;;;;;13.03;9.50;;;22.80;99.90;;;;;;5008847;28;20433;-87
2022/10/08 09:34:18;;;;;;;12.60;9.13;;;23.00;99.90;;;;;;5007453;28;20456;-88
2022/10/08 09:37:12;;;;;;;15.63;10.83;;;22.80;99.90;;;;;;5010871;28;20444;-86
2022/10/08 09:40:06;;;;;;;11.00;9.23;;;22.30;99.90;;;;;;5010527;28;20410;-88
2022/10/08 09:42:39;;;;;;;10.93;8.90;;;22.20;99.90;;;;;;5008210;28;20498;-88
2022/10/08 09:45:43;;;;;;;12.33;9.93;;;22.20;99.90;;;;;;5007821;28;20452;-90
2022/10/08 09:48:25;;;;;;;10.63;9.50;;;22.20;99.90;;;;;;5001608;28;20434;-88
2022/10/08 09:51:16;;;;;;;13.23;11.83;;;22.30;99.90;;;;;;4998550;28;20459;-87
2022/10/08 09:53:58;;;;;;;10.97;9.90;;;22.50;99.90;;;;;;5007920;28;20490;-89
2022/10/08 09:56:33;;;;;;;11.00;9.40;;;22.70;99.90;;;;;;5004563;28;20508;-87
2022/10/08 09:59:23;;;;;;;14.40;10.80;;;22.90;99.90;;;;;;5000172;28;20407;-87
2022/10/08 10:01:54;;;;;;;10.17;9.10;;;23.00;99.90;;;;;;4998003;28;20510;-88
2022/10/08 10:04:33;;;;;;;13.57;10.37;;;23.30;99.90;;;;;;5007068;28;20412;-88
2022/10/08 10:07:05;;;;;;;10.57;9.70;;;23.40;99.90;;;;;;4998839;28;20678;-88
2022/10/08 10:09:44;;;;;;;12.50;11.20;;;23.30;99.90;;;;;;5003655;28;20430;-87
2022/10/08 10:12:36;;;;;;;15.10;10.00;;;23.10;99.90;;;;;;5002472;28;20486;-87
2022/10/08 10:15:19;;;;;;;12.93;11.60;;;23.10;99.90;;;;;;5002021;28;20749;-88
2022/10/08 10:18:19;;;;;;;10.13;8.70;;;23.00;99.90;;;;;;4998303;28;20475;-88
2022/10/08 10:21:01;;;;;;;13.27;9.50;;;23.10;99.90;;;;;;5005159;28;20487;-87
2022/10/08 10:23:54;;;;;;;12.73;8.43;;;22.90;99.90;;;;;;5007386;28;20471;-87
2022/10/08 10:26:40;;;;;;;10.40;7.77;;;22.90;99.90;;;;;;4990321;28;20478;-89
2022/10/08 10:29:19;;;;;;;9.60;8.63;;;23.00;99.90;;;;;;5012559;28;20402;-89
2022/10/08 10:32:07;;;;;;;10.80;9.70;;;23.30;99.90;;;;;;5010457;28;20416;-88
2022/10/08 10:35:09;;;;;;;11.43;7.80;;;23.30;99.90;;;;;;5004764;28;20414;-90
2022/10/08 10:38:13;;;;;;;10.10;8.77;;;23.30;99.90;;;;;;5009485;28;20434;-89
2022/10/08 10:41:10;;;;;;;10.33;8.30;;;23.00;99.90;;;;;;5022771;23;20454;-89
2022/10/08 10:52:07;;;;;;;12.20;9.20;;;22.20;99.90;;;;;;5111814;23;20634;-90
2022/10/08 10:55:22;;;;;;;12.70;8.90;;;21.90;99.90;;;;;;5147766;23;20484;-86
2022/10/08 10:58:23;;;;;;;10.30;8.73;;;22.00;99.90;;;;;;5000807;28;20415;-85
2022/10/08 11:01:26;;;;;;;10.60;9.50;;;22.10;99.90;;;;;;4983415;28;20432;-86
2022/10/08 11:04:29;;;;;;;18.60;10.37;;;22.40;99.90;;;;;;4989621;28;20448;-86
2022/10/08 11:07:42;;;;;;;18.63;7.97;;;22.20;99.90;;;;;;4985075;28;20461;-85
2022/10/08 11:10:44;;;;;;;9.70;8.80;;;22.00;99.90;;;;;;4984541;28;20443;-86
2022/10/08 11:13:30;;;;;;;10.57;8.80;;;21.60;99.90;;;;;;4982999;28;20473;-87
2022/10/08 11:16:09;;;;;;;8.50;7.60;;;21.60;99.90;;;;;;4983692;28;20486;-87
2022/10/08 11:18:40;;;;;;;8.10;7.30;;;21.40;99.90;;;;;;4982864;28;20436;-88
2022/10/08 11:21:24;;;;;;;9.53;8.00;;;21.50;99.90;;;;;;4983126;28;20530;-86
2022/10/08 11:24:05;;;;;;;11.57;9.57;;;21.50;99.90;;;;;;4985248;28;20443;-85
2022/10/08 11:27:10;;;;;;;17.17;8.90;;;21.40;99.90;;;;;;4981231;28;20461;-86
2022/10/08 11:30:00;;;;;;;10.27;9.23;;;21.30;99.90;;;;;;4985518;28;20440;-88
2022/10/08 11:32:29;;;;;;;11.30;10.00;;;21.50;99.90;;;;;;4986303;28;20440;-85
2022/10/08 11:35:16;;;;;;;10.60;8.30;;;21.80;99.90;;;;;;4985289;28;20429;-86
2022/10/08 11:38:13;;;;;;;11.00;9.73;;;21.80;99.90;;;;;;4991323;28;20447;-87
2022/10/08 11:40:54;;;;;;;13.70;8.77;;;22.00;99.90;;;;;;4977540;28;20456;-87
2022/10/08 11:43:40;;;;;;;13.33;10.13;;;21.90;99.90;;;;;;4987643;28;20423;-86
2022/10/08 11:46:30;;;;;;;14.30;9.80;;;21.50;99.90;;;;;;4987764;28;20484;-86
2022/10/08 11:49:15;;;;;;;12.73;10.50;;;21.10;99.90;;;;;;4982976;28;20475;-86
2022/10/08 11:51:50;;;;;;;29.47;9.80;;;21.00;99.90;;;;;;4992677;28;20428;-85
2022/10/08 11:54:36;;;;;;;12.10;9.43;;;20.90;99.90;;;;;;4993046;28;20473;-87
2022/10/08 11:57:23;;;;;;;18.50;11.77;;;20.90;99.90;;;;;;4998339;28;20463;-86
2022/10/08 12:00:49;;;;;;;12.83;9.50;;;21.00;99.90;;;;;;4988790;28;20454;-87
2022/10/08 12:03:21;;;;;;;11.30;10.20;;;20.90;99.90;;;;;;4983340;28;20522;-86
2022/10/08 12:05:56;;;;;;;17.17;10.87;;;20.80;99.90;;;;;;4988740;28;20802;-87
2022/10/08 12:08:52;;;;;;;12.07;10.73;;;20.50;99.90;;;;;;4988994;28;20797;-86
2022/10/08 12:11:36;;;;;;;18.00;9.80;;;20.50;99.90;;;;;;4985792;28;20769;-88
2022/10/08 12:14:26;;;;;;;11.17;10.00;;;20.40;99.90;;;;;;4993802;28;20452;-88
2022/10/08 12:16:57;;;;;;;12.80;11.33;;;20.20;99.90;;;;;;4992413;28;20450;-86
2022/10/08 12:20:15;;;;;;;12.53;10.63;;;20.10;99.90;;;;;;4992734;28;20479;-87
2022/10/08 12:23:34;;;;;;;10.33;9.30;;;19.90;99.90;;;;;;4981329;28;20403;-88
2022/10/08 12:26:11;;;;;;;12.40;11.20;;;19.50;99.90;;;;;;4992648;28;20444;-88
2022/10/08 12:28:49;;;;;;;21.40;12.17;;;19.40;99.90;;;;;;4991901;28;20448;-87
2022/10/08 12:31:40;;;;;;;11.07;9.93;;;19.40;99.90;;;;;;4985827;28;20520;-87
2022/10/08 12:34:21;;;;;;;18.60;12.27;;;19.40;99.90;;;;;;5012138;28;20442;-86
2022/10/08 12:37:12;;;;;;;14.57;12.30;;;19.30;99.90;;;;;;4986716;28;20440;-87
2022/10/08 12:39:44;;;;;;;15.57;12.80;;;19.50;99.90;;;;;;4990806;28;20424;-86
2022/10/08 12:42:21;;;;;;;12.50;10.83;;;19.30;99.90;;;;;;4990759;28;20475;-88
2022/10/08 12:44:59;;;;;;;13.73;10.67;;;19.40;99.90;;;;;;4988884;28;20432;-86
2022/10/08 12:47:59;;;;;;;18.20;12.63;;;19.40;99.90;;;;;;4988771;28;20464;-87
2022/10/08 12:51:03;;;;;;;18.00;13.30;;;19.50;99.90;;;;;;4988872;28;20524;-87
2022/10/08 12:53:34;;;;;;;16.43;12.60;;;19.30;99.90;;;;;;4987255;28;20446;-87
2022/10/08 12:56:02;;;;;;;17.40;13.07;;;19.30;99.90;;;;;;4983844;28;20470;-89
2022/10/08 12:58:36;;;;;;;16.37;13.27;;;19.40;99.90;;;;;;4985865;28;20471;-87
2022/10/08 13:01:06;;;;;;;14.60;13.10;;;19.40;99.90;;;;;;4969395;28;20635;-87
2022/10/08 13:03:33;;;;;;;13.73;11.97;;;19.30;99.90;;;;;;4969299;28;20450;-87
2022/10/08 13:06:28;;;;;;;12.03;10.83;;;19.20;99.90;;;;;;4987513;28;20468;-86
2022/10/08 13:09:04;;;;;;;16.60;12.77;;;19.30;99.90;;;;;;4995182;28;20467;-86
2022/10/08 13:11:35;;;;;;;15.80;12.00;;;19.20;99.90;;;;;;4991681;28;20449;-88
2022/10/08 13:14:31;;;;;;;14.90;13.20;;;19.10;99.90;;;;;;4989366;28;20652;-86
2022/10/08 13:16:59;;;;;;;16.47;12.67;;;19.30;99.90;;;;;;4988184;28;20420;-85
2022/10/08 13:19:38;;;;;;;21.10;13.17;;;19.40;99.90;;;;;;4994086;28;20483;-86
2022/10/08 13:22:26;;;;;;;20.63;12.87;;;19.30;99.90;;;;;;4993427;28;20424;-86
2022/10/08 13:24:54;;;;;;;18.07;13.70;;;19.50;99.90;;;;;;4992151;28;20450;-87
2022/10/08 13:27:32;;;;;;;19.93;14.17;;;19.60;99.90;;;;;;4987360;28;20547;-89
2022/10/08 13:30:26;;;;;;;15.90;12.80;;;19.60;99.90;;;;;;4987237;28;20440;-87
2022/10/08 13:33:04;;;;;;;13.13;11.80;;;19.60;99.90;;;;;;4981055;28;20452;-86
2022/10/08 13:35:33;;;;;;;14.00;11.90;;;19.60;99.90;;;;;;4984853;28;20457;-87